METAR AND TAF INFORMATION
METAR FOR TFFR
ADDS - METARS form results

(2047 UTC 21 May 2018)
Data provider http://aviationweather.gov/adds/metars/
 
METAR text: TFFR 212030Z AUTO 13010KT 5000 2200 -RA BR FEW008/// SCT044/// OVC052/// ///CB 23/20 Q1014 TEMPO VRB15G25KT 1000 TSRA
Conditions at: TFFR (LE RAIZET , GP) observed 2030 UTC 21 May 2018
Temperature: 23.0°C (73°F)
Dewpoint: 20.0°C (68°F) [RH = 83%]
Pressure (altimeter): 29.94 inches Hg (1014.0 mb)
Winds: from the SE (130 degrees) at 12 MPH (10 knots; 5.2 m/s)
Visibility: 3 miles (5 km)
Ceiling: 5200 feet AGL
Clouds: few clouds at 800 feet AGL
scattered clouds at 4400 feet AGL
overcast cloud deck at 5200 feet AGL
Weather: -RA BR  (light rain, mist)

METAR text: TFFR 212000Z AUTO 11017KT 9999 FEW021/// BKN049/// BKN060/// ///CB 24/21 Q1014 TEMPO VRB15G25KT 1000 TSRA
Conditions at: TFFR (LE RAIZET , GP) observed 2000 UTC 21 May 2018
Temperature: 24.0°C (75°F)
Dewpoint: 21.0°C (70°F) [RH = 83%]
Pressure (altimeter): 29.94 inches Hg (1014.0 mb)
Winds: from the ESE (110 degrees) at 20 MPH (17 knots; 8.8 m/s)
Visibility: 6 or more miles (10+ km)
Ceiling: 4900 feet AGL
Clouds: few clouds at 2100 feet AGL
broken clouds at 4900 feet AGL
broken clouds at 6000 feet AGL
Weather: no significant weather observed at this time

Forecast for: TFFR (LE RAIZET , GP)
Text: TAF TFFR 211700Z 2118/2218 09010KT 9999 SCT025 SCT035
Forecast period: 1800 UTC 21 May 2018 to 1800 UTC 22 May 2018
Forecast type: FROM: standard forecast or significant change
Winds: from the E (90 degrees) at 12 MPH (10 knots; 5.2 m/s)
Visibility: 6 or more miles (10+ km)
Clouds: scattered clouds at 2500 feet AGL
scattered clouds at 3500 feet AGL
Weather: no significant weather forecast for this period
Forecast for: TFFR (LE RAIZET , GP)
Text: TAF TFFR 211700Z 2118/2218 09010KT 9999 SCT025 SCT035
Forecast period: 1800 UTC 21 May 2018 to 1800 UTC 22 May 2018
Forecast type: FROM: standard forecast or significant change
Winds: from the E (90 degrees) at 12 MPH (10 knots; 5.2 m/s)
Visibility: 6 or more miles (10+ km)
Clouds: scattered clouds at 2500 feet AGL
scattered clouds at 3500 feet AGL
Weather: no significant weather forecast for this period
Forecast for: TFFR (LE RAIZET , GP)
Text: TAF TFFR 211700Z 2118/2218 09010KT 9999 SCT025 SCT035
Forecast period: 1800 UTC 21 May 2018 to 1800 UTC 22 May 2018
Forecast type: TEMPORARY: The following changes expected for less than half the time period
Visibility: 1.86 miles (2.99 km)
Ceiling: 2500 feet AGL
Clouds: scattered clouds at 2000 feet AGL
broken clouds at 2500 feet AGL
Weather: SHRA  (rain showers)
Forecast for: TFFR (LE RAIZET , GP)
Text: TAF TFFR 211700Z 2118/2218 09010KT 9999 SCT025 SCT035
Forecast period: 1800 UTC 21 May 2018 to 1800 UTC 22 May 2018
Forecast type: TEMPORARY: The following changes expected for less than half the time period
Visibility: 1.86 miles (2.99 km)
Ceiling: 2500 feet AGL
Clouds: scattered clouds at 2000 feet AGL
broken clouds at 2500 feet AGL
Weather: SHRA  (rain showers)
Forecast for: TFFR (LE RAIZET , GP)
Text: TAF TFFR 211700Z 2118/2218 09010KT 9999 SCT025 SCT035
Forecast period: 1800 UTC 21 May 2018 to 0000 UTC 22 May 2018
Forecast type: TEMPORARY: The following changes expected for less than half the time period
Winds: variable direction winds at 17 MPH (15 knots; 7.8 m/s)
gusting to 29 MPH (25 knots; 13.0 m/s)
Visibility: 0.62 miles (1.00 km)
Ceiling: 1500 feet AGL
Clouds: few clouds at 1000 feet AGL
broken clouds at 1500 feet AGL
Weather: TSRA  (rain associated with thunderstorm(s))
Forecast for: TFFR (LE RAIZET , GP)
Text: TAF TFFR 211700Z 2118/2218 09010KT 9999 SCT025 SCT035
Forecast period: 1800 UTC 21 May 2018 to 0000 UTC 22 May 2018
Forecast type: TEMPORARY: The following changes expected for less than half the time period
Winds: variable direction winds at 17 MPH (15 knots; 7.8 m/s)
gusting to 29 MPH (25 knots; 13.0 m/s)
Visibility: 0.62 miles (1.00 km)
Ceiling: 1500 feet AGL
Clouds: few clouds at 1000 feet AGL
broken clouds at 1500 feet AGL
Weather: TSRA  (rain associated with thunderstorm(s))
Forecast for: TFFR (LE RAIZET , GP)
Text: TAF TFFR 211700Z 2118/2218 09010KT 9999 SCT025 SCT035
Forecast period: 1200 to 1800 UTC 22 May 2018
Forecast type: TEMPORARY: The following changes expected for less than half the time period
Visibility: 0.62 miles (1.00 km)
Clouds: scattered clouds at 1000 feet AGL
Weather: TSRA  (rain associated with thunderstorm(s))
Forecast for: TFFR (LE RAIZET , GP)
Text: TAF TFFR 211700Z 2118/2218 09010KT 9999 SCT025 SCT035
Forecast period: 1200 to 1800 UTC 22 May 2018
Forecast type: TEMPORARY: The following changes expected for less than half the time period
Visibility: 0.62 miles (1.00 km)
Clouds: scattered clouds at 1000 feet AGL
Weather: TSRA  (rain associated with thunderstorm(s))

 AIRPORT MAP

 RUNWAY INFORMATION
Runway 12 Runway length 11499 ft Runway width 148 ft
Runway elevation 5 ft Runway displaced threshold 1312 ft Runway heading 101
Runway 30 Runway length 11499 ft Runway width 148 ft
Runway elevation 32 ft Runway displaced threshold 820 ft Runway heading 281

 AIRPORT FREQUENCIES
Type APP Name RAIZET APP Frequency 121.3 MHZ
Type ATIS Name ATIS Frequency 127.6 MHZ
Type GND Name GND Frequency 121.85 MHZ
Type TWR Name RAIZET TWR Frequency 118.4 MHZ

 AIRPORT NEAR NAVIGATION AIDS
Type VOR-DME Name Pointe A Pitre Frequency 112900 KHZ
Type NDB Name Pointe A Pitre Frequency 385 KHZ



Powered by Virtual Airlines Manager [v2.6.2]